createdAt,value
2022-11-09T00:06:40.720Z,0
2022-11-09T00:11:52.810Z,100
2022-11-09T00:17:04.796Z,100
2022-11-09T00:22:17.608Z,100
2022-11-09T00:27:30.498Z,100
2022-11-09T00:32:42.675Z,0
2022-11-09T00:37:55.051Z,0
2022-11-09T00:43:08.006Z,100
2022-11-09T00:48:20.728Z,100
2022-11-09T00:53:32.695Z,0
2022-11-09T00:58:44.812Z,0
2022-11-09T01:03:56.944Z,100
2022-11-09T01:09:09.896Z,100
2022-11-09T01:14:22.809Z,100
2022-11-09T01:19:35.472Z,100
2022-11-09T01:24:47.324Z,0
2022-11-09T01:30:00.425Z,100
2022-11-09T01:35:12.723Z,100
2022-11-09T01:40:25.689Z,100
2022-11-09T01:45:37.658Z,0
2022-11-09T01:50:49.770Z,100
2022-11-09T01:56:02.446Z,100
2022-11-09T02:01:15.557Z,100
2022-11-09T02:06:27.710Z,0
2022-11-09T02:11:39.625Z,100
2022-11-09T02:16:52.099Z,100
2022-11-09T02:27:14.325Z,0
2022-11-09T02:32:26.517Z,100
2022-11-09T02:37:39.080Z,100
2022-11-09T02:42:51.926Z,100
2022-11-09T02:48:03.898Z,0
2022-11-09T02:53:15.894Z,100
2022-11-09T02:58:29.074Z,100
2022-11-09T03:08:51.240Z,0
2022-11-09T03:14:03.208Z,0
2022-11-09T03:19:15.506Z,100
2022-11-09T03:24:28.270Z,100
2022-11-09T03:29:39.929Z,0
2022-11-09T03:34:51.926Z,0
2022-11-09T03:40:04.625Z,100
2022-11-09T03:45:17.430Z,100
2022-11-09T03:50:29.208Z,0
2022-11-09T03:55:41.370Z,0
2022-11-09T04:00:53.258Z,100
2022-11-09T04:06:05.467Z,100
2022-11-09T04:11:18.537Z,100
2022-11-09T04:16:30.171Z,0
2022-11-09T04:21:42.058Z,0
2022-11-09T04:26:54.791Z,100
2022-11-09T04:42:26.583Z,0
2022-11-09T04:47:38.757Z,100
2022-11-09T04:52:53.404Z,0
2022-11-09T04:58:04.781Z,0
2022-11-09T05:49:45.676Z,0
2022-11-09T06:05:17.643Z,0
2022-11-09T06:15:39.249Z,0
2022-11-09T06:20:51.733Z,100
2022-11-09T06:31:13.436Z,0
2022-11-09T06:36:26.593Z,100
2022-11-09T06:46:48.035Z,0
2022-11-09T06:57:10.132Z,0
2022-11-09T07:02:23.368Z,0
2022-11-09T07:07:34.862Z,0
2022-11-09T07:12:47.038Z,100
2022-11-09T07:17:59.835Z,100
2022-11-09T07:23:12.017Z,0
2022-11-09T07:28:24.332Z,0
2022-11-09T07:33:36.285Z,100
2022-11-09T07:38:48.524Z,100
2022-11-09T07:44:01.593Z,100
2022-11-09T07:49:14.313Z,100
2022-11-09T07:54:27.094Z,100
2022-11-09T07:59:39.816Z,100
2022-11-09T08:04:52.593Z,100
2022-11-09T08:10:04.753Z,100
2022-11-09T08:15:16.864Z,100
2022-11-09T08:20:29.207Z,100
2022-11-09T08:25:41.294Z,100
2022-11-09T08:30:53.534Z,100
2022-11-09T08:36:05.671Z,100
2022-11-09T08:41:17.894Z,100
2022-11-09T08:46:30.208Z,100
2022-11-09T08:51:42.353Z,100
2022-11-09T08:56:54.260Z,100
2022-11-09T09:02:06.909Z,100
2022-11-09T09:07:19.461Z,100
2022-11-09T09:12:31.755Z,100
2022-11-09T09:17:43.913Z,0
2022-11-09T09:22:56.015Z,0
2022-11-09T09:28:08.073Z,0
2022-11-09T09:33:20.259Z,0
2022-11-09T09:38:32.314Z,0
2022-11-09T09:43:44.734Z,0
2022-11-09T09:48:56.799Z,0
2022-11-09T09:54:08.885Z,0
2022-11-09T09:59:21.213Z,0
2022-11-09T10:04:33.844Z,0
2022-11-09T10:09:45.868Z,0
2022-11-09T10:14:58.065Z,0
2022-11-09T10:20:10.079Z,0
2022-11-09T10:26:08.891Z,0
2022-11-09T10:31:21.719Z,0
2022-11-09T10:36:33.783Z,1
2022-11-09T10:41:45.981Z,2
2022-11-09T10:46:58.264Z,2
2022-11-09T10:52:10.444Z,4
2022-11-09T10:57:22.765Z,4
2022-11-09T11:02:36.062Z,5
2022-11-09T11:07:49.233Z,7
2022-11-09T11:13:02.578Z,14
2022-11-09T11:18:15.839Z,22
2022-11-09T11:23:30.224Z,99
2022-11-09T11:28:45.559Z,82
2022-11-09T11:33:59.466Z,79
2022-11-09T11:39:12.248Z,79
2022-11-09T11:49:30.920Z,97
2022-11-09T12:05:02.980Z,94
2022-11-09T12:10:16.038Z,94
2022-11-09T12:15:28.358Z,95
2022-11-09T16:26:15.521Z,11
2022-11-09T16:31:53.758Z,9
2022-11-09T16:37:01.789Z,6
2022-11-09T16:42:13.689Z,3
2022-11-09T16:52:51.966Z,0
2022-11-09T16:58:03.743Z,0
2022-11-09T17:03:15.650Z,0
2022-11-09T17:08:27.701Z,0
2022-11-09T17:13:39.883Z,0
2022-11-09T17:18:51.764Z,0
2022-11-09T17:24:03.681Z,0
2022-11-09T17:29:15.782Z,0
2022-11-09T17:34:27.947Z,0
2022-11-09T17:39:40.058Z,0
2022-11-09T17:44:52.302Z,0
2022-11-09T17:50:04.177Z,0
2022-11-09T17:55:16.218Z,0
2022-11-09T18:00:28.301Z,0
2022-11-09T18:05:40.237Z,0
2022-11-09T18:10:52.202Z,0
2022-11-09T18:16:04.215Z,0
2022-11-09T18:21:16.027Z,0
2022-11-09T18:26:28.136Z,0
2022-11-09T18:31:40.094Z,0
2022-11-09T18:36:51.765Z,0
2022-11-09T18:42:03.651Z,0
2022-11-09T18:52:27.871Z,0
2022-11-09T18:57:39.814Z,100
2022-11-09T19:02:52.205Z,100
2022-11-09T19:08:05.486Z,100
2022-11-09T19:13:16.998Z,100
2022-11-09T19:18:28.963Z,100
2022-11-09T19:23:40.790Z,100
2022-11-09T19:28:52.633Z,100
2022-11-09T19:34:04.607Z,100
2022-11-09T19:39:16.482Z,100
2022-11-09T19:44:28.412Z,100
2022-11-09T19:49:40.448Z,100
2022-11-09T19:54:53.208Z,100
2022-11-09T20:00:05.368Z,100
2022-11-09T20:05:17.766Z,100
2022-11-09T20:10:29.945Z,100
2022-11-09T20:15:42.188Z,100
2022-11-09T20:20:54.852Z,100
2022-11-09T20:26:07.174Z,100
2022-11-09T20:31:19.152Z,100
2022-11-09T20:36:31.581Z,100
2022-11-09T20:41:43.486Z,100
2022-11-09T20:46:55.554Z,100
2022-11-09T20:52:07.696Z,100
2022-11-09T20:57:19.696Z,100
2022-11-09T21:02:31.906Z,100
2022-11-09T21:07:44.036Z,100
2022-11-09T21:12:56.136Z,100
2022-11-09T21:23:19.584Z,0
2022-11-09T21:28:31.830Z,0
2022-11-09T21:33:44.060Z,0
2022-11-09T21:38:56.327Z,0
2022-11-09T21:44:11.062Z,0
2022-11-09T21:49:22.199Z,0
2022-11-09T21:54:35.004Z,0
2022-11-09T21:59:47.012Z,0
2022-11-09T22:04:59.402Z,0
2022-11-09T22:10:12.716Z,0
2022-11-09T22:15:24.048Z,0
2022-11-09T22:20:35.899Z,0
2022-11-09T22:25:49.040Z,0
2022-11-09T22:31:00.606Z,0
2022-11-09T22:36:12.674Z,0
2022-11-09T22:41:25.013Z,0
2022-11-09T22:46:36.930Z,0
2022-11-09T22:51:48.894Z,0
2022-11-09T22:57:00.757Z,0
2022-11-09T23:02:12.672Z,0
2022-11-09T23:07:24.522Z,0
2022-11-09T23:12:36.475Z,0
2022-11-09T23:17:48.533Z,0
2022-11-09T23:23:00.382Z,0
2022-11-09T23:28:12.239Z,0
2022-11-09T23:33:25.382Z,0
2022-11-09T23:38:36.875Z,0
2022-11-09T23:43:50.915Z,0
2022-11-09T23:49:02.097Z,0
2022-11-09T23:54:14.013Z,0
2022-11-09T23:59:25.875Z,0
